createdAt,value
2023-04-02T00:00:36.881Z,1000.40
2023-04-02T00:01:37.019Z,1000.39
2023-04-02T00:02:37.016Z,1000.39
2023-04-02T00:03:37.044Z,1000.39
2023-04-02T00:04:36.891Z,1000.41
2023-04-02T00:05:37.179Z,1000.44
2023-04-02T00:06:36.860Z,1000.44
2023-04-02T00:07:36.824Z,1000.44
2023-04-02T00:08:36.849Z,1000.46
2023-04-02T00:09:36.829Z,1000.47
2023-04-02T00:10:36.828Z,1000.48
2023-04-02T00:11:36.775Z,1000.48
2023-04-02T00:12:36.753Z,1000.49
2023-04-02T00:13:36.755Z,1000.50
2023-04-02T00:14:36.766Z,1000.53
2023-04-02T00:15:36.994Z,1000.56
2023-04-02T00:16:36.783Z,1000.58
2023-04-02T00:17:36.763Z,1000.59
2023-04-02T00:18:36.699Z,1000.61
2023-04-02T00:19:36.702Z,1000.66
2023-04-02T00:20:36.668Z,1000.66
2023-04-02T00:21:38.230Z,1000.70
2023-04-02T00:22:36.656Z,1000.72
2023-04-02T00:23:36.641Z,1000.72
2023-04-02T00:24:36.671Z,1000.73
2023-04-02T00:25:36.859Z,1000.76
2023-04-02T00:26:36.675Z,1000.73
2023-04-02T00:27:36.603Z,1000.79
2023-04-02T00:28:36.588Z,1000.81
2023-04-02T00:29:36.613Z,1000.79
2023-04-02T00:30:36.565Z,1000.83
2023-04-02T00:31:36.561Z,1000.82
2023-04-02T00:32:36.733Z,1000.87
2023-04-02T00:33:36.536Z,1000.88
2023-04-02T00:34:36.543Z,1000.88
2023-04-02T00:35:36.860Z,1000.91
2023-04-02T00:36:36.503Z,1000.94
2023-04-02T00:37:36.490Z,1000.95
2023-04-02T00:38:36.484Z,1000.98
2023-04-02T00:39:36.472Z,1000.99
2023-04-02T00:40:36.670Z,1001.04
2023-04-02T00:41:36.461Z,1001.04
2023-04-02T00:42:36.500Z,1001.03
2023-04-02T00:43:36.422Z,1001.07
2023-04-02T00:44:36.431Z,1001.03
2023-04-02T00:45:36.648Z,1001.06
2023-04-02T00:46:36.408Z,1001.05
2023-04-02T00:47:36.456Z,1001.09
2023-04-02T00:48:36.427Z,1001.07
2023-04-02T00:49:36.369Z,1001.12
2023-04-02T00:50:36.358Z,1001.14
2023-04-02T00:51:36.337Z,1001.14
2023-04-02T00:52:36.356Z,1001.14
2023-04-02T00:53:36.316Z,1001.16
2023-04-02T00:54:36.321Z,1001.15
2023-04-02T00:55:36.621Z,1001.17
2023-04-02T00:56:36.349Z,1001.17
2023-04-02T00:57:36.337Z,1001.21
2023-04-02T00:58:36.337Z,1001.22
2023-04-02T00:59:36.276Z,1001.22
2023-04-02T01:00:36.257Z,1001.24
2023-04-02T01:01:36.378Z,1001.27
2023-04-02T01:02:36.347Z,1001.28
2023-04-02T01:03:37.054Z,1001.27
2023-04-02T01:04:36.232Z,1001.29
2023-04-02T01:05:36.683Z,1001.30
2023-04-02T01:06:36.241Z,1001.32
2023-04-02T01:07:36.182Z,1001.27
2023-04-02T01:08:36.165Z,1001.30
2023-04-02T01:09:36.147Z,1001.29
2023-04-02T01:10:36.133Z,1001.32
2023-04-02T01:11:36.128Z,1001.35
2023-04-02T01:12:36.114Z,1001.36
2023-04-02T01:13:36.110Z,1001.36
2023-04-02T01:14:36.158Z,1001.38
2023-04-02T01:15:36.372Z,1001.39
2023-04-02T01:16:36.075Z,1001.38
2023-04-02T01:17:36.079Z,1001.36
2023-04-02T01:18:36.165Z,1001.40
2023-04-02T01:19:36.045Z,1001.41
2023-04-02T01:20:36.025Z,1001.43
2023-04-02T01:21:36.009Z,1001.44
2023-04-02T01:22:36.022Z,1001.46
2023-04-02T01:23:36.014Z,1001.47
2023-04-02T01:24:35.989Z,1001.48
2023-04-02T01:25:36.212Z,1001.49
2023-04-02T01:26:35.973Z,1001.52
2023-04-02T01:27:35.949Z,1001.56
2023-04-02T01:28:35.974Z,1001.56
2023-04-02T01:29:35.983Z,1001.57
2023-04-02T01:30:36.001Z,1001.59
2023-04-02T01:31:35.937Z,1001.62
2023-04-02T01:32:35.942Z,1001.64
2023-04-02T01:33:35.875Z,1001.68
2023-04-02T01:34:35.950Z,1001.71
2023-04-02T01:35:36.092Z,1001.73
2023-04-02T01:36:35.859Z,1001.72
2023-04-02T01:37:35.847Z,1001.73
2023-04-02T01:38:35.849Z,1001.78
2023-04-02T01:39:35.825Z,1001.75
2023-04-02T01:40:35.812Z,1001.80
2023-04-02T01:41:35.807Z,1001.83
2023-04-02T01:42:35.771Z,1001.80
2023-04-02T01:43:35.771Z,1001.82
2023-04-02T01:44:35.771Z,1001.86
2023-04-02T01:45:36.144Z,1001.88
2023-04-02T01:46:35.762Z,1001.88
2023-04-02T01:47:35.756Z,1001.89
2023-04-02T01:48:35.707Z,1001.90
2023-04-02T01:49:35.743Z,1001.91
2023-04-02T01:50:35.701Z,1001.93
2023-04-02T01:51:35.684Z,1001.96
2023-04-02T01:52:35.721Z,1001.97
2023-04-02T01:53:35.662Z,1002.00
2023-04-02T01:54:35.653Z,1002.02
2023-04-02T01:55:36.122Z,1002.06
2023-04-02T01:56:35.693Z,1002.09
2023-04-02T01:57:35.698Z,1002.08
2023-04-02T01:58:35.734Z,1002.11
2023-04-02T01:59:35.614Z,1002.14
2023-04-02T02:00:35.627Z,1002.14
2023-04-02T02:01:35.584Z,1002.15
2023-04-02T02:02:35.713Z,1002.18
2023-04-02T02:03:35.609Z,1002.19
2023-04-02T02:04:35.661Z,1002.21
2023-04-02T02:05:35.779Z,1002.24
2023-04-02T02:06:35.624Z,1002.26
2023-04-02T02:07:35.540Z,1002.29
2023-04-02T02:08:35.554Z,1002.29
2023-04-02T02:09:35.610Z,1002.28
2023-04-02T02:10:35.558Z,1002.29
2023-04-02T02:11:35.478Z,1002.33
2023-04-02T02:12:35.455Z,1002.35
2023-04-02T02:13:35.454Z,1002.34
2023-04-02T02:14:35.449Z,1002.33
2023-04-02T02:15:35.617Z,1002.35
2023-04-02T02:16:35.450Z,1002.41
2023-04-02T02:17:35.458Z,1002.43
2023-04-02T02:18:35.401Z,1002.46
2023-04-02T02:19:35.390Z,1002.47
2023-04-02T02:20:35.395Z,1002.48
2023-04-02T02:21:35.356Z,1002.50
2023-04-02T02:22:35.352Z,1002.54
2023-04-02T02:23:35.336Z,1002.54
2023-04-02T02:24:35.344Z,1002.55
2023-04-02T02:25:35.499Z,1002.57
2023-04-02T02:26:35.312Z,1002.58
2023-04-02T02:27:35.300Z,1002.59
2023-04-02T02:28:35.308Z,1002.64
2023-04-02T02:29:35.294Z,1002.65
2023-04-02T02:30:35.264Z,1002.68
2023-04-02T02:31:35.284Z,1002.71
2023-04-02T02:32:35.309Z,1002.72
2023-04-02T02:33:35.224Z,1002.73
2023-04-02T02:34:35.232Z,1002.77
2023-04-02T02:35:35.543Z,1002.80
2023-04-02T02:36:35.200Z,1002.86
2023-04-02T02:37:35.194Z,1002.84
2023-04-02T02:38:35.202Z,1002.84
2023-04-02T02:39:35.192Z,1002.86
2023-04-02T02:40:35.158Z,1002.86
2023-04-02T02:41:35.157Z,1002.91
2023-04-02T02:42:35.157Z,1002.91
2023-04-02T02:43:35.126Z,1002.96
2023-04-02T02:44:35.155Z,1002.97
2023-04-02T02:45:35.320Z,1003.02
2023-04-02T02:46:35.120Z,1003.10
2023-04-02T02:47:35.121Z,1003.11
2023-04-02T02:48:35.111Z,1003.06
2023-04-02T02:49:35.075Z,1003.13
2023-04-02T02:50:35.046Z,1003.12
2023-04-02T02:51:35.030Z,1003.12
2023-04-02T02:52:35.035Z,1003.16
2023-04-02T02:53:35.010Z,1003.17
2023-04-02T02:54:35.015Z,1003.17
2023-04-02T02:55:35.145Z,1003.18
2023-04-02T02:56:34.988Z,1003.20
2023-04-02T02:57:35.059Z,1003.22
2023-04-02T02:58:35.061Z,1003.27
2023-04-02T02:59:34.966Z,1003.27
2023-04-02T03:00:34.948Z,1003.32
2023-04-02T03:01:34.953Z,1003.30
2023-04-02T03:02:35.018Z,1003.32
2023-04-02T03:03:35.062Z,1003.34
2023-04-02T03:04:34.938Z,1003.44
2023-04-02T03:05:35.001Z,1003.43
2023-04-02T03:06:34.879Z,1003.44
2023-04-02T03:07:34.997Z,1003.45
2023-04-02T03:08:34.858Z,1003.50
2023-04-02T03:09:34.850Z,1003.47
2023-04-02T03:10:34.902Z,1003.50
2023-04-02T03:11:34.816Z,1003.54
2023-04-02T03:12:34.804Z,1003.55
2023-04-02T03:13:34.792Z,1003.57
2023-04-02T03:14:34.804Z,1003.58
2023-04-02T03:15:35.073Z,1003.60
2023-04-02T03:16:34.773Z,1003.61
2023-04-02T03:17:34.817Z,1003.63
2023-04-02T03:18:34.749Z,1003.69
2023-04-02T03:19:34.746Z,1003.66
2023-04-02T03:20:34.726Z,1003.74
2023-04-02T03:21:34.702Z,1003.78
2023-04-02T03:22:34.703Z,1003.80
2023-04-02T03:23:34.690Z,1003.78
2023-04-02T03:24:34.689Z,1003.78
2023-04-02T03:25:34.854Z,1003.85
2023-04-02T03:26:34.686Z,1003.83
2023-04-02T03:27:34.645Z,1003.91
2023-04-02T03:28:34.673Z,1003.91
2023-04-02T03:29:34.647Z,1003.90
2023-04-02T03:30:34.653Z,1003.96
2023-04-02T03:31:34.650Z,1003.95
2023-04-02T03:32:34.673Z,1003.95
2023-04-02T03:33:34.665Z,1003.98
2023-04-02T03:34:34.588Z,1003.98
2023-04-02T03:35:34.940Z,1004.01
2023-04-02T03:36:34.554Z,1004.04
2023-04-02T03:37:34.548Z,1004.04
2023-04-02T03:38:34.552Z,1004.07
2023-04-02T03:39:34.542Z,1004.10
2023-04-02T03:40:34.528Z,1004.10
2023-04-02T03:41:34.533Z,1004.12
2023-04-02T03:42:34.523Z,1004.10
2023-04-02T03:43:34.489Z,1004.15
2023-04-02T03:44:34.472Z,1004.16
2023-04-02T03:45:34.696Z,1004.18
2023-04-02T03:46:34.489Z,1004.19
2023-04-02T03:47:34.464Z,1004.18
2023-04-02T03:48:34.448Z,1004.21
2023-04-02T03:49:34.457Z,1004.23
2023-04-02T03:50:34.417Z,1004.21
2023-04-02T03:51:34.408Z,1004.25
2023-04-02T03:52:34.399Z,1004.28
2023-04-02T03:53:34.374Z,1004.29
2023-04-02T03:54:34.360Z,1004.33
2023-04-02T03:55:34.638Z,1004.34
2023-04-02T03:56:34.340Z,1004.33
2023-04-02T03:57:34.347Z,1004.38
2023-04-02T03:58:34.312Z,1004.36
2023-04-02T03:59:34.315Z,1004.39
2023-04-02T04:00:34.320Z,1004.46
2023-04-02T04:01:34.376Z,1004.47
2023-04-02T04:02:34.378Z,1004.56
2023-04-02T04:03:34.323Z,1004.50
2023-04-02T04:04:34.312Z,1004.55
2023-04-02T04:05:34.360Z,1004.57
2023-04-02T04:06:34.218Z,1004.65
2023-04-02T04:07:34.215Z,1004.65
2023-04-02T04:08:34.236Z,1004.65
2023-04-02T04:09:34.213Z,1004.71
2023-04-02T04:10:34.187Z,1004.74
2023-04-02T04:11:34.189Z,1004.73
2023-04-02T04:12:34.155Z,1004.75
2023-04-02T04:13:34.152Z,1004.78
2023-04-02T04:14:34.200Z,1004.82
2023-04-02T04:15:34.536Z,1004.85
2023-04-02T04:16:34.133Z,1004.84
2023-04-02T04:17:34.128Z,1004.91
2023-04-02T04:18:34.094Z,1004.93
2023-04-02T04:19:34.095Z,1004.88
2023-04-02T04:20:34.082Z,1004.92
2023-04-02T04:21:34.063Z,1004.94
2023-04-02T04:22:34.154Z,1005.03
2023-04-02T04:23:34.042Z,1005.00
2023-04-02T04:24:34.047Z,1005.02
2023-04-02T04:25:34.580Z,1005.07
2023-04-02T04:26:34.006Z,1005.13
2023-04-02T04:27:34.038Z,1005.13
2023-04-02T04:28:33.991Z,1005.15
2023-04-02T04:29:33.993Z,1005.21
2023-04-02T04:30:33.987Z,1005.20
2023-04-02T04:31:34.040Z,1005.25
2023-04-02T04:32:34.107Z,1005.25
2023-04-02T04:33:33.934Z,1005.31
2023-04-02T04:34:33.934Z,1005.31
2023-04-02T04:35:34.206Z,1005.29
2023-04-02T04:36:33.894Z,1005.32
2023-04-02T04:37:33.937Z,1005.36
2023-04-02T04:38:33.887Z,1005.38
2023-04-02T04:39:33.881Z,1005.33
2023-04-02T04:40:33.907Z,1005.37
2023-04-02T04:41:33.852Z,1005.40
2023-04-02T04:42:33.832Z,1005.39
2023-04-02T04:43:33.828Z,1005.42
2023-04-02T04:44:33.846Z,1005.53
2023-04-02T04:45:34.056Z,1005.50
2023-04-02T04:46:33.961Z,1005.56
2023-04-02T04:47:33.858Z,1005.55
2023-04-02T04:48:35.217Z,1005.64
2023-04-02T04:49:33.794Z,1005.65
2023-04-02T04:50:33.749Z,1005.65
2023-04-02T04:51:33.746Z,1005.69
2023-04-02T04:52:33.770Z,1005.73
2023-04-02T04:53:33.729Z,1005.73
2023-04-02T04:54:33.711Z,1005.77
2023-04-02T04:55:33.877Z,1005.79
2023-04-02T04:56:33.701Z,1005.82
2023-04-02T04:57:33.726Z,1005.80
2023-04-02T04:58:33.664Z,1005.82
2023-04-02T04:59:33.671Z,1005.87
2023-04-02T05:00:33.673Z,1005.89
2023-04-02T05:01:33.670Z,1005.89
2023-04-02T05:02:33.669Z,1005.90
2023-04-02T05:03:33.616Z,1005.96
2023-04-02T05:04:33.666Z,1005.97
2023-04-02T05:05:33.969Z,1005.97
2023-04-02T05:06:33.572Z,1006.04
2023-04-02T05:07:33.625Z,1006.04
2023-04-02T05:08:33.556Z,1006.04
2023-04-02T05:09:33.574Z,1006.07
2023-04-02T05:10:33.529Z,1006.09
2023-04-02T05:11:33.521Z,1006.09
2023-04-02T05:12:33.543Z,1006.12
2023-04-02T05:13:33.531Z,1006.16
2023-04-02T05:14:33.506Z,1006.13
2023-04-02T05:15:33.594Z,1006.18
2023-04-02T05:16:33.678Z,1006.22
2023-04-02T05:17:33.484Z,1006.20
2023-04-02T05:18:33.474Z,1006.23
2023-04-02T05:19:33.453Z,1006.23
2023-04-02T05:20:33.428Z,1006.21
2023-04-02T05:21:33.431Z,1006.26
2023-04-02T05:22:33.411Z,1006.28
2023-04-02T05:23:33.393Z,1006.29
2023-04-02T05:24:33.385Z,1006.31
2023-04-02T05:25:33.585Z,1006.34
2023-04-02T05:26:33.360Z,1006.35
2023-04-02T05:27:33.370Z,1006.36
2023-04-02T05:28:33.331Z,1006.45
2023-04-02T05:29:33.376Z,1006.48
2023-04-02T05:30:33.368Z,1006.52
2023-04-02T05:31:33.331Z,1006.52
2023-04-02T05:32:33.343Z,1006.54
2023-04-02T05:33:33.297Z,1006.58
2023-04-02T05:34:33.281Z,1006.63
2023-04-02T05:35:33.528Z,1006.61
2023-04-02T05:36:33.254Z,1006.61
2023-04-02T05:37:33.301Z,1006.70
2023-04-02T05:38:33.232Z,1006.70
2023-04-02T05:39:33.262Z,1006.69
2023-04-02T05:40:33.258Z,1006.74
2023-04-02T05:41:33.205Z,1006.76
2023-04-02T05:42:33.236Z,1006.77
2023-04-02T05:43:33.196Z,1006.78
2023-04-02T05:44:33.238Z,1006.82
2023-04-02T05:45:33.372Z,1006.83
2023-04-02T05:46:33.169Z,1006.83
2023-04-02T05:47:33.344Z,1006.88
2023-04-02T05:48:33.129Z,1006.92
2023-04-02T05:49:33.131Z,1006.90
2023-04-02T05:50:33.100Z,1006.94
2023-04-02T05:51:33.091Z,1006.99
2023-04-02T05:52:33.080Z,1007.01
2023-04-02T05:53:33.092Z,1007.05
2023-04-02T05:54:33.070Z,1007.05
2023-04-02T05:55:33.459Z,1007.10
2023-04-02T05:56:33.033Z,1007.14
2023-04-02T05:57:44.651Z,1007.15
2023-04-02T05:58:36.970Z,1007.18
2023-04-02T05:59:33.079Z,1007.19
2023-04-02T06:00:33.005Z,1007.21
2023-04-02T06:01:33.021Z,1007.25
2023-04-02T06:02:33.082Z,1007.25
2023-04-02T06:03:33.236Z,1007.26
2023-04-02T06:04:33.027Z,1007.33
2023-04-02T06:05:33.023Z,1007.34
2023-04-02T06:06:32.946Z,1007.35
2023-04-02T06:07:32.952Z,1007.38
2023-04-02T06:08:32.910Z,1007.42
2023-04-02T06:09:32.905Z,1007.46
2023-04-02T06:10:32.892Z,1007.45
2023-04-02T06:11:32.904Z,1007.45
2023-04-02T06:12:32.855Z,1007.46
2023-04-02T06:13:32.856Z,1007.50
2023-04-02T06:14:32.876Z,1007.56
2023-04-02T06:15:33.048Z,1007.56
2023-04-02T06:16:32.856Z,1007.61
2023-04-02T06:17:32.903Z,1007.64
2023-04-02T06:18:32.927Z,1007.69
2023-04-02T06:19:33.950Z,1007.70
2023-04-02T06:20:34.385Z,1007.70
2023-04-02T06:21:35.017Z,1007.75
2023-04-02T06:22:32.897Z,1007.74
2023-04-02T06:23:33.876Z,1007.79
2023-04-02T06:24:35.521Z,1007.81
2023-04-02T06:25:32.795Z,1007.86
2023-04-02T06:26:32.896Z,1007.85
2023-04-02T06:27:32.964Z,1007.94
2023-04-02T06:28:33.131Z,1007.98
2023-04-02T06:29:32.844Z,1007.94
2023-04-02T06:30:33.067Z,1008.01
2023-04-02T06:31:33.456Z,1008.03
2023-04-02T06:32:33.289Z,1007.97
2023-04-02T06:33:33.066Z,1008.07
2023-04-02T06:34:33.398Z,1008.10
2023-04-02T06:35:33.981Z,1008.13
2023-04-02T06:36:32.904Z,1008.09
2023-04-02T06:37:32.671Z,1008.14
2023-04-02T06:38:32.640Z,1008.13
2023-04-02T06:39:32.618Z,1008.18
2023-04-02T06:40:32.587Z,1008.15
2023-04-02T06:41:32.559Z,1008.18
2023-04-02T06:42:32.608Z,1008.22
2023-04-02T06:43:32.541Z,1008.28
2023-04-02T06:44:32.639Z,1008.31
2023-04-02T06:45:32.506Z,1008.29
2023-04-02T06:46:32.577Z,1008.34
2023-04-02T06:47:32.508Z,1008.33
2023-04-02T06:48:32.513Z,1008.35
2023-04-02T06:49:32.977Z,1008.39
2023-04-02T06:50:32.462Z,1008.44
2023-04-02T06:51:32.446Z,1008.49
2023-04-02T06:52:34.052Z,1008.48
2023-04-02T06:53:32.424Z,1008.52
2023-04-02T06:54:32.413Z,1008.53
2023-04-02T06:55:32.557Z,1008.58
2023-04-02T06:56:32.438Z,1008.59
2023-04-02T06:57:32.481Z,1008.62
2023-04-02T06:58:32.365Z,1008.63
2023-04-02T06:59:32.386Z,1008.67
2023-04-02T07:00:32.359Z,1008.68
2023-04-02T07:01:32.404Z,1008.70
2023-04-02T07:02:32.350Z,1008.71
2023-04-02T07:03:32.327Z,1008.80
2023-04-02T07:04:32.366Z,1008.83
2023-04-02T07:05:32.505Z,1008.78
2023-04-02T07:06:32.281Z,1008.81
2023-04-02T07:07:32.327Z,1008.84
2023-04-02T07:08:32.268Z,1008.84
2023-04-02T07:09:32.256Z,1008.88
2023-04-02T07:10:32.246Z,1008.90
2023-04-02T07:11:32.231Z,1008.94
2023-04-02T07:12:32.214Z,1008.95
2023-04-02T07:13:32.217Z,1008.98
2023-04-02T07:14:32.209Z,1009.01
2023-04-02T07:15:32.186Z,1009.04
2023-04-02T07:16:32.195Z,1008.99
2023-04-02T07:17:32.289Z,1009.06
2023-04-02T07:18:32.158Z,1009.11
2023-04-02T07:19:32.158Z,1009.14
2023-04-02T07:20:32.128Z,1009.15
2023-04-02T07:21:32.129Z,1009.14
2023-04-02T07:22:32.113Z,1009.17
2023-04-02T07:23:32.137Z,1009.18
2023-04-02T07:24:32.085Z,1009.21
2023-04-02T07:25:32.073Z,1009.22
2023-04-02T07:26:32.063Z,1009.23
2023-04-02T07:27:32.058Z,1009.28
2023-04-02T07:28:32.074Z,1009.30
2023-04-02T07:29:32.061Z,1009.29
2023-04-02T07:30:32.014Z,1009.31
2023-04-02T07:31:32.028Z,1009.34
2023-04-02T07:32:32.005Z,1009.32
2023-04-02T07:33:32.053Z,1009.37
2023-04-02T07:34:32.007Z,1009.41
2023-04-02T07:35:32.030Z,1009.41
2023-04-02T07:36:31.942Z,1009.47
2023-04-02T07:37:31.962Z,1009.44
2023-04-02T07:38:31.937Z,1009.49
2023-04-02T07:39:32.612Z,1009.51
2023-04-02T07:40:31.902Z,1009.56
2023-04-02T07:41:31.903Z,1009.58
2023-04-02T07:42:31.885Z,1009.53
2023-04-02T07:43:31.936Z,1009.58
2023-04-02T07:44:31.892Z,1009.63
2023-04-02T07:45:31.855Z,1009.66
2023-04-02T07:46:31.915Z,1009.64
2023-04-02T07:47:31.978Z,1009.69
2023-04-02T07:48:31.819Z,1009.73
2023-04-02T07:49:31.854Z,1009.73
2023-04-02T07:50:31.904Z,1009.78
2023-04-02T07:51:31.788Z,1009.81
2023-04-02T07:52:31.778Z,1009.80
2023-04-02T07:53:31.779Z,1009.84
2023-04-02T07:54:31.762Z,1009.89
2023-04-02T07:55:31.775Z,1009.90
2023-04-02T07:56:31.735Z,1009.93
2023-04-02T07:57:31.845Z,1009.90
2023-04-02T07:58:31.722Z,1009.94
2023-04-02T07:59:31.787Z,1009.91
2023-04-02T08:00:31.689Z,1009.99
2023-04-02T08:01:31.706Z,1010.02
2023-04-02T08:02:31.847Z,1009.99
2023-04-02T08:03:31.780Z,1010.00
2023-04-02T08:04:31.670Z,1010.00
2023-04-02T08:05:31.673Z,1010.02
2023-04-02T08:06:31.643Z,1010.03
2023-04-02T08:07:31.623Z,1010.09
2023-04-02T08:08:31.625Z,1010.08
2023-04-02T08:09:31.613Z,1010.09
2023-04-02T08:10:31.586Z,1010.12
2023-04-02T08:11:32.003Z,1010.13
2023-04-02T08:12:31.577Z,1010.18
2023-04-02T08:13:31.555Z,1010.22
2023-04-02T08:14:31.581Z,1010.25
2023-04-02T08:15:31.538Z,1010.21
2023-04-02T08:16:31.524Z,1010.24
2023-04-02T08:17:31.629Z,1010.29
2023-04-02T08:18:31.534Z,1010.32
2023-04-02T08:19:32.719Z,1010.32
2023-04-02T08:20:31.513Z,1010.31
2023-04-02T08:21:31.481Z,1010.38
2023-04-02T08:22:31.473Z,1010.44
2023-04-02T08:23:31.520Z,1010.48
2023-04-02T08:24:31.462Z,1010.49
2023-04-02T08:25:31.475Z,1010.53
2023-04-02T08:26:31.447Z,1010.53
2023-04-02T08:27:31.438Z,1010.54
2023-04-02T08:28:31.413Z,1010.58
2023-04-02T08:29:31.422Z,1010.63
2023-04-02T08:30:31.517Z,1010.69
2023-04-02T08:31:31.382Z,1010.63
2023-04-02T08:32:31.412Z,1010.67
2023-04-02T08:33:31.422Z,1010.73
2023-04-02T08:34:31.418Z,1010.76
2023-04-02T08:35:31.323Z,1010.73
2023-04-02T08:36:31.321Z,1010.81
2023-04-02T08:37:31.344Z,1010.80
2023-04-02T08:38:31.284Z,1010.83
2023-04-02T08:39:31.287Z,1010.87
2023-04-02T08:40:31.313Z,1010.87
2023-04-02T08:41:31.250Z,1010.91
2023-04-02T08:42:31.246Z,1010.88
2023-04-02T08:43:31.268Z,1010.90
2023-04-02T08:44:31.241Z,1010.93
2023-04-02T08:45:31.213Z,1010.98
2023-04-02T08:46:31.303Z,1010.96
2023-04-02T08:47:31.207Z,1010.97
2023-04-02T08:48:31.235Z,1010.97
2023-04-02T08:49:31.181Z,1011.01
2023-04-02T08:50:31.154Z,1011.04
2023-04-02T08:51:31.140Z,1011.11
2023-04-02T08:52:31.131Z,1011.13
2023-04-02T08:53:31.124Z,1011.16
2023-04-02T08:54:31.135Z,1011.17
2023-04-02T08:55:31.111Z,1011.20
2023-04-02T08:56:31.102Z,1011.20
2023-04-02T08:57:31.236Z,1011.23
2023-04-02T08:58:31.071Z,1011.25
2023-04-02T08:59:31.079Z,1011.24
2023-04-02T09:00:31.036Z,1011.27
2023-04-02T09:01:31.078Z,1011.26
2023-04-02T09:02:31.092Z,1011.29
2023-04-02T09:03:31.012Z,1011.30
2023-04-02T09:04:31.031Z,1011.33
2023-04-02T09:05:30.996Z,1011.30
2023-04-02T09:06:30.977Z,1011.33
2023-04-02T09:07:30.986Z,1011.35
2023-04-02T09:08:31.021Z,1011.38
2023-04-02T09:09:30.945Z,1011.41
2023-04-02T09:10:30.991Z,1011.42
2023-04-02T09:11:30.935Z,1011.42
2023-04-02T09:12:30.965Z,1011.42
2023-04-02T09:13:30.907Z,1011.47
2023-04-02T09:14:30.900Z,1011.49
2023-04-02T09:15:30.902Z,1011.50
2023-04-02T09:16:31.090Z,1011.57
2023-04-02T09:17:34.846Z,1011.58
2023-04-02T09:18:31.952Z,1011.57
2023-04-02T09:19:30.854Z,1011.54
2023-04-02T09:20:30.886Z,1011.56
2023-04-02T09:21:30.833Z,1011.59
2023-04-02T09:22:30.804Z,1011.60
2023-04-02T09:23:30.801Z,1011.67
2023-04-02T09:24:30.789Z,1011.70
2023-04-02T09:25:30.776Z,1011.68
2023-04-02T09:26:30.784Z,1011.74
2023-04-02T09:27:30.764Z,1011.74
2023-04-02T09:28:30.758Z,1011.76
2023-04-02T09:29:30.750Z,1011.76
2023-04-02T09:30:30.722Z,1011.81
2023-04-02T09:31:30.825Z,1011.83
2023-04-02T09:32:30.833Z,1011.84
2023-04-02T09:33:30.690Z,1011.90
2023-04-02T09:34:30.707Z,1011.90
2023-04-02T09:35:30.666Z,1011.94
2023-04-02T09:36:30.750Z,1011.95
2023-04-02T09:37:30.648Z,1011.97
2023-04-02T09:38:30.867Z,1012.01
2023-04-02T09:39:30.636Z,1012.06
2023-04-02T09:40:30.619Z,1012.09
2023-04-02T09:41:30.687Z,1012.13
2023-04-02T09:42:30.594Z,1012.10
2023-04-02T09:43:30.606Z,1012.13
2023-04-02T09:44:30.591Z,1012.14
2023-04-02T09:45:30.574Z,1012.17
2023-04-02T09:46:30.614Z,1012.23
2023-04-02T09:47:30.594Z,1012.23
2023-04-02T09:48:30.612Z,1012.26
2023-04-02T09:49:30.535Z,1012.28
2023-04-02T09:50:30.533Z,1012.33
2023-04-02T09:51:30.496Z,1012.29
2023-04-02T09:52:30.502Z,1012.32
2023-04-02T09:53:30.483Z,1012.30
2023-04-02T09:54:30.537Z,1012.32
2023-04-02T09:55:30.452Z,1012.34
2023-04-02T09:56:30.447Z,1012.42
2023-04-02T09:57:30.511Z,1012.43
2023-04-02T09:58:30.428Z,1012.43
2023-04-02T09:59:30.421Z,1012.46
2023-04-02T10:00:32.435Z,1012.50
2023-04-02T10:01:31.548Z,1012.48
2023-04-02T10:02:30.382Z,1012.50
2023-04-02T10:03:30.431Z,1012.54
2023-04-02T10:04:30.420Z,1012.58
2023-04-02T10:05:40.439Z,1012.54
2023-04-02T10:06:31.340Z,1012.58
2023-04-02T10:07:30.318Z,1012.62
2023-04-02T10:08:30.317Z,1012.60
2023-04-02T10:09:30.309Z,1012.60
2023-04-02T10:10:30.291Z,1012.63
2023-04-02T10:11:36.428Z,1012.68
2023-04-02T10:12:31.271Z,1012.68
2023-04-02T10:13:30.262Z,1012.72
2023-04-02T10:14:30.282Z,1012.73
2023-04-02T10:15:30.242Z,1012.74
2023-04-02T10:16:30.260Z,1012.73
2023-04-02T10:17:30.227Z,1012.71
2023-04-02T10:18:30.226Z,1012.75
2023-04-02T10:19:30.208Z,1012.77
2023-04-02T10:20:33.954Z,1012.77
2023-04-02T10:21:31.190Z,1012.79
2023-04-02T10:22:30.376Z,1012.81
2023-04-02T10:23:30.175Z,1012.84
2023-04-02T10:24:30.168Z,1012.87
2023-04-02T10:25:30.122Z,1012.85
2023-04-02T10:26:30.124Z,1012.91
2023-04-02T10:27:30.124Z,1012.95
2023-04-02T10:28:30.097Z,1012.98
2023-04-02T10:29:30.099Z,1012.99
2023-04-02T10:30:30.215Z,1012.95
2023-04-02T10:31:30.101Z,1013.04
2023-04-02T10:32:30.165Z,1013.06
2023-04-02T10:33:30.042Z,1013.08
2023-04-02T10:34:30.049Z,1013.05
2023-04-02T10:35:30.063Z,1013.12
2023-04-02T10:36:30.007Z,1013.14
2023-04-02T10:37:30.025Z,1013.15
2023-04-02T10:38:29.991Z,1013.20
2023-04-02T10:39:29.986Z,1013.19
2023-04-02T10:40:30.063Z,1013.26
2023-04-02T10:41:29.959Z,1013.27
2023-04-02T10:42:29.953Z,1013.29
2023-04-02T10:43:29.939Z,1013.33
2023-04-02T10:44:29.974Z,1013.33
2023-04-02T10:45:29.920Z,1013.35
2023-04-02T10:46:29.927Z,1013.36
2023-04-02T10:47:29.933Z,1013.33
2023-04-02T10:48:29.884Z,1013.37
2023-04-02T10:49:29.911Z,1013.37
2023-04-02T10:50:29.856Z,1013.41
2023-04-02T10:51:29.882Z,1013.36
2023-04-02T10:52:29.841Z,1013.38
2023-04-02T10:53:29.833Z,1013.37
2023-04-02T10:54:29.859Z,1013.38
2023-04-02T10:55:29.956Z,1013.42
2023-04-02T10:56:33.097Z,1013.46
2023-04-02T10:57:30.824Z,1013.48
2023-04-02T10:58:29.797Z,1013.48
2023-04-02T10:59:29.777Z,1013.53
2023-04-02T11:00:29.751Z,1013.55
2023-04-02T11:01:29.951Z,1013.56
2023-04-02T11:02:29.792Z,1013.60
2023-04-02T11:03:29.806Z,1013.57
2023-04-02T11:04:29.719Z,1013.61
2023-04-02T11:05:29.702Z,1013.64
2023-04-02T11:06:29.685Z,1013.69
2023-04-02T11:07:29.680Z,1013.71
2023-04-02T11:08:29.686Z,1013.72
2023-04-02T11:09:29.673Z,1013.78
2023-04-02T11:10:29.672Z,1013.78
2023-04-02T11:11:29.645Z,1013.79
2023-04-02T11:12:29.617Z,1013.77
2023-04-02T11:13:29.633Z,1013.79
2023-04-02T11:14:29.622Z,1013.81
2023-04-02T11:15:29.626Z,1013.80
2023-04-02T11:16:29.626Z,1013.85
2023-04-02T11:17:29.600Z,1013.85
2023-04-02T11:18:29.561Z,1013.88
2023-04-02T11:19:29.580Z,1013.90
2023-04-02T11:20:29.633Z,1013.87
2023-04-02T11:21:29.568Z,1013.89
2023-04-02T11:22:29.516Z,1013.89
2023-04-02T11:23:29.559Z,1013.90
2023-04-02T11:24:29.587Z,1013.92
2023-04-02T11:25:29.511Z,1013.98
2023-04-02T11:26:29.474Z,1013.96
2023-04-02T11:27:29.534Z,1014.01
2023-04-02T11:28:29.463Z,1014.01
2023-04-02T11:29:29.472Z,1013.95
2023-04-02T11:30:29.423Z,1013.99
2023-04-02T11:31:29.455Z,1014.01
2023-04-02T11:32:29.430Z,1014.03
2023-04-02T11:33:36.364Z,1014.06
2023-04-02T11:34:30.392Z,1014.09
2023-04-02T11:35:29.374Z,1014.08
2023-04-02T11:36:29.362Z,1014.08
2023-04-02T11:37:29.354Z,1014.06
2023-04-02T11:38:29.385Z,1014.11
2023-04-02T11:39:29.341Z,1014.14
2023-04-02T11:40:29.317Z,1014.13
2023-04-02T11:41:29.353Z,1014.15
2023-04-02T11:42:29.303Z,1014.17
2023-04-02T11:43:29.389Z,1014.15
2023-04-02T11:44:29.318Z,1014.16
2023-04-02T11:45:29.329Z,1014.16
2023-04-02T11:46:29.294Z,1014.20
2023-04-02T11:47:29.328Z,1014.18
2023-04-02T11:48:29.237Z,1014.15
2023-04-02T11:49:29.241Z,1014.22
2023-04-02T11:50:29.240Z,1014.21
2023-04-02T11:51:29.249Z,1014.18
2023-04-02T11:52:29.248Z,1014.20
2023-04-02T11:53:29.180Z,1014.22
2023-04-02T11:54:29.170Z,1014.21
2023-04-02T11:55:29.154Z,1014.26
2023-04-02T11:56:29.203Z,1014.28
2023-04-02T11:57:29.293Z,1014.29
2023-04-02T11:58:29.115Z,1014.30
2023-04-02T11:59:29.134Z,1014.32
2023-04-02T12:00:29.106Z,1014.29
2023-04-02T12:01:29.089Z,1014.31
2023-04-02T12:02:29.183Z,1014.30
2023-04-02T12:03:29.069Z,1014.29
2023-04-02T12:04:29.061Z,1014.32
2023-04-02T12:05:29.105Z,1014.37